sensor_id;sensor_type;location;lat;lon;timestamp;pressure;altitude;pressure_sealevel;temperature;humidity
58785;BME280;44557;51.862;19.378;2022-11-25T00:00:41;99231.35;;;1.18;93.10
58785;BME280;44557;51.862;19.378;2022-11-25T00:01:55;99229.62;;;1.23;93.04
58785;BME280;44557;51.862;19.378;2022-11-25T00:02:56;99231.39;;;1.23;93.14
58785;BME280;44557;51.862;19.378;2022-11-25T00:03:58;99228.00;;;1.26;93.13
58785;BME280;44557;51.862;19.378;2022-11-25T00:04:59;99232.29;;;1.26;92.92
58785;BME280;44557;51.862;19.378;2022-11-25T00:06:11;99232.17;;;1.22;93.05
58785;BME280;44557;51.862;19.378;2022-11-25T00:07:12;99231.48;;;1.34;92.64
58785;BME280;44557;51.862;19.378;2022-11-25T00:08:13;99234.40;;;1.31;92.65
58785;BME280;44557;51.862;19.378;2022-11-25T00:09:14;99234.03;;;1.38;92.68
58785;BME280;44557;51.862;19.378;2022-11-25T00:10:15;99229.98;;;1.37;92.62
58785;BME280;44557;51.862;19.378;2022-11-25T00:11:16;99232.02;;;1.34;92.20
58785;BME280;44557;51.862;19.378;2022-11-25T00:12:17;99229.98;;;1.33;92.79
58785;BME280;44557;51.862;19.378;2022-11-25T00:13:18;99229.02;;;1.31;92.68
58785;BME280;44557;51.862;19.378;2022-11-25T00:14:19;99226.84;;;1.32;92.58
58785;BME280;44557;51.862;19.378;2022-11-25T00:15:20;99227.58;;;1.39;92.17
58785;BME280;44557;51.862;19.378;2022-11-25T00:16:22;99222.08;;;1.40;92.10
58785;BME280;44557;51.862;19.378;2022-11-25T00:17:23;99221.31;;;1.40;92.41
58785;BME280;44557;51.862;19.378;2022-11-25T00:18:24;99224.60;;;1.33;92.37
58785;BME280;44557;51.862;19.378;2022-11-25T00:19:25;99224.17;;;1.37;92.13
58785;BME280;44557;51.862;19.378;2022-11-25T00:20:26;99225.30;;;1.38;92.15
58785;BME280;44557;51.862;19.378;2022-11-25T00:21:30;99226.13;;;1.38;92.58
58785;BME280;44557;51.862;19.378;2022-11-25T00:22:31;99223.73;;;1.33;92.51
58785;BME280;44557;51.862;19.378;2022-11-25T00:23:32;99223.63;;;1.37;92.31
58785;BME280;44557;51.862;19.378;2022-11-25T00:24:33;99225.29;;;1.40;92.14
58785;BME280;44557;51.862;19.378;2022-11-25T00:25:34;99227.32;;;1.37;92.27
58785;BME280;44557;51.862;19.378;2022-11-25T00:26:35;99228.77;;;1.35;92.58
58785;BME280;44557;51.862;19.378;2022-11-25T00:27:36;99226.91;;;1.34;92.46
58785;BME280;44557;51.862;19.378;2022-11-25T00:28:38;99224.39;;;1.33;92.63
58785;BME280;44557;51.862;19.378;2022-11-25T00:29:39;99226.04;;;1.32;92.73
58785;BME280;44557;51.862;19.378;2022-11-25T00:30:40;99229.42;;;1.34;92.70
58785;BME280;44557;51.862;19.378;2022-11-25T00:31:41;99231.46;;;1.37;92.11
58785;BME280;44557;51.862;19.378;2022-11-25T00:32:42;99235.24;;;1.33;92.24
58785;BME280;44557;51.862;19.378;2022-11-25T00:33:44;99233.30;;;1.32;92.53
58785;BME280;44557;51.862;19.378;2022-11-25T00:34:44;99234.43;;;1.33;92.64
58785;BME280;44557;51.862;19.378;2022-11-25T00:35:45;99233.40;;;1.41;92.49
58785;BME280;44557;51.862;19.378;2022-11-25T00:36:47;99231.92;;;1.38;92.36
58785;BME280;44557;51.862;19.378;2022-11-25T00:37:47;99231.79;;;1.36;92.19
58785;BME280;44557;51.862;19.378;2022-11-25T00:39:00;99230.65;;;1.35;92.21
58785;BME280;44557;51.862;19.378;2022-11-25T00:40:01;99230.17;;;1.39;92.33
58785;BME280;44557;51.862;19.378;2022-11-25T00:41:02;99227.95;;;1.47;91.87
58785;BME280;44557;51.862;19.378;2022-11-25T00:42:22;99228.92;;;1.40;92.03
58785;BME280;44557;51.862;19.378;2022-11-25T00:43:41;99229.23;;;1.38;92.33
58785;BME280;44557;51.862;19.378;2022-11-25T00:45:01;99230.29;;;1.34;92.11
58785;BME280;44557;51.862;19.378;2022-11-25T00:46:02;99232.59;;;1.32;92.94
58785;BME280;44557;51.862;19.378;2022-11-25T00:47:23;99229.42;;;1.34;92.41
58785;BME280;44557;51.862;19.378;2022-11-25T00:48:24;99233.94;;;1.34;92.56
58785;BME280;44557;51.862;19.378;2022-11-25T00:49:24;99233.70;;;1.40;92.17
58785;BME280;44557;51.862;19.378;2022-11-25T00:50:25;99232.74;;;1.42;91.87
58785;BME280;44557;51.862;19.378;2022-11-25T00:51:26;99234.79;;;1.44;92.13
58785;BME280;44557;51.862;19.378;2022-11-25T00:52:27;99232.06;;;1.35;92.50
58785;BME280;44557;51.862;19.378;2022-11-25T00:53:29;99230.91;;;1.40;92.40
58785;BME280;44557;51.862;19.378;2022-11-25T00:54:31;99231.52;;;1.40;92.07
58785;BME280;44557;51.862;19.378;2022-11-25T00:55:32;99233.89;;;1.42;92.29
58785;BME280;44557;51.862;19.378;2022-11-25T00:56:53;99236.61;;;1.37;92.49
58785;BME280;44557;51.862;19.378;2022-11-25T00:57:54;99236.64;;;1.39;92.32
58785;BME280;44557;51.862;19.378;2022-11-25T00:58:55;99238.21;;;1.39;92.38
58785;BME280;44557;51.862;19.378;2022-11-25T00:59:56;99237.61;;;1.38;92.66
58785;BME280;44557;51.862;19.378;2022-11-25T01:01:00;99236.17;;;1.41;92.12
58785;BME280;44557;51.862;19.378;2022-11-25T01:02:01;99236.38;;;1.42;92.32
58785;BME280;44557;51.862;19.378;2022-11-25T01:03:02;99239.08;;;1.43;92.23
58785;BME280;44557;51.862;19.378;2022-11-25T01:04:04;99242.17;;;1.43;92.40
58785;BME280;44557;51.862;19.378;2022-11-25T01:05:06;99239.30;;;1.43;92.46
58785;BME280;44557;51.862;19.378;2022-11-25T01:06:09;99243.58;;;1.44;92.50
58785;BME280;44557;51.862;19.378;2022-11-25T01:07:11;99244.45;;;1.48;92.37
58785;BME280;44557;51.862;19.378;2022-11-25T01:08:11;99246.13;;;1.44;92.47
58785;BME280;44557;51.862;19.378;2022-11-25T01:09:12;99248.50;;;1.41;92.23
58785;BME280;44557;51.862;19.378;2022-11-25T01:10:13;99243.61;;;1.41;92.43
58785;BME280;44557;51.862;19.378;2022-11-25T01:11:17;99244.52;;;1.37;92.69
58785;BME280;44557;51.862;19.378;2022-11-25T01:12:18;99246.41;;;1.43;92.27
58785;BME280;44557;51.862;19.378;2022-11-25T01:13:19;99246.86;;;1.42;92.37
58785;BME280;44557;51.862;19.378;2022-11-25T01:14:20;99249.85;;;1.46;92.31
58785;BME280;44557;51.862;19.378;2022-11-25T01:15:22;99248.39;;;1.45;92.20
58785;BME280;44557;51.862;19.378;2022-11-25T01:16:23;99247.95;;;1.41;92.64
58785;BME280;44557;51.862;19.378;2022-11-25T01:17:24;99248.07;;;1.45;92.42
58785;BME280;44557;51.862;19.378;2022-11-25T01:18:27;99251.19;;;1.44;92.25
58785;BME280;44557;51.862;19.378;2022-11-25T01:19:28;99250.10;;;1.52;92.19
58785;BME280;44557;51.862;19.378;2022-11-25T01:20:29;99249.64;;;1.59;91.48
58785;BME280;44557;51.862;19.378;2022-11-25T01:21:32;99254.58;;;1.54;91.77
58785;BME280;44557;51.862;19.378;2022-11-25T01:22:33;99259.62;;;1.56;91.73
58785;BME280;44557;51.862;19.378;2022-11-25T01:23:35;99257.80;;;1.54;92.06
58785;BME280;44557;51.862;19.378;2022-11-25T01:24:36;99259.77;;;1.51;92.03
58785;BME280;44557;51.862;19.378;2022-11-25T01:25:38;99261.01;;;1.49;91.67
58785;BME280;44557;51.862;19.378;2022-11-25T01:26:40;99257.85;;;1.54;91.70
58785;BME280;44557;51.862;19.378;2022-11-25T01:27:41;99259.38;;;1.53;91.78
58785;BME280;44557;51.862;19.378;2022-11-25T01:28:43;99258.93;;;1.49;91.74
58785;BME280;44557;51.862;19.378;2022-11-25T01:29:44;99262.85;;;1.53;91.83
58785;BME280;44557;51.862;19.378;2022-11-25T01:30:45;99260.52;;;1.52;91.70
58785;BME280;44557;51.862;19.378;2022-11-25T01:31:46;99262.52;;;1.54;91.90
58785;BME280;44557;51.862;19.378;2022-11-25T01:32:48;99260.71;;;1.59;91.60
58785;BME280;44557;51.862;19.378;2022-11-25T01:33:54;99258.11;;;1.62;91.63
58785;BME280;44557;51.862;19.378;2022-11-25T01:34:55;99261.55;;;1.61;91.61
58785;BME280;44557;51.862;19.378;2022-11-25T01:35:59;99261.59;;;1.54;91.79
58785;BME280;44557;51.862;19.378;2022-11-25T01:37:01;99258.42;;;1.59;91.57
58785;BME280;44557;51.862;19.378;2022-11-25T01:38:02;99261.78;;;1.64;91.53
58785;BME280;44557;51.862;19.378;2022-11-25T01:39:03;99263.16;;;1.71;91.32
58785;BME280;44557;51.862;19.378;2022-11-25T01:40:05;99260.70;;;1.64;91.12
58785;BME280;44557;51.862;19.378;2022-11-25T01:41:09;99261.71;;;1.57;91.57
58785;BME280;44557;51.862;19.378;2022-11-25T01:42:10;99259.42;;;1.53;91.75
58785;BME280;44557;51.862;19.378;2022-11-25T01:43:13;99260.00;;;1.51;91.72
58785;BME280;44557;51.862;19.378;2022-11-25T01:46:28;99263.27;;;1.54;91.85
58785;BME280;44557;51.862;19.378;2022-11-25T01:47:32;99259.89;;;1.55;91.67
58785;BME280;44557;51.862;19.378;2022-11-25T01:48:42;99260.15;;;1.52;92.13
58785;BME280;44557;51.862;19.378;2022-11-25T01:51:02;99264.16;;;1.43;92.87
58785;BME280;44557;51.862;19.378;2022-11-25T01:52:20;99263.41;;;1.46;92.68
58785;BME280;44557;51.862;19.378;2022-11-25T01:53:23;99263.53;;;1.46;92.30
58785;BME280;44557;51.862;19.378;2022-11-25T01:54:26;99265.36;;;1.48;92.12
58785;BME280;44557;51.862;19.378;2022-11-25T01:55:29;99267.53;;;1.56;92.08
58785;BME280;44557;51.862;19.378;2022-11-25T01:56:36;99271.35;;;1.50;92.30
58785;BME280;44557;51.862;19.378;2022-11-25T01:57:43;99270.97;;;1.50;92.07
58785;BME280;44557;51.862;19.378;2022-11-25T01:58:46;99268.65;;;1.49;92.24
58785;BME280;44557;51.862;19.378;2022-11-25T01:59:49;99268.66;;;1.47;92.70
58785;BME280;44557;51.862;19.378;2022-11-25T02:00:52;99268.20;;;1.54;92.18
58785;BME280;44557;51.862;19.378;2022-11-25T02:01:53;99268.70;;;1.49;92.22
58785;BME280;44557;51.862;19.378;2022-11-25T02:02:55;99269.65;;;1.48;92.28
58785;BME280;44557;51.862;19.378;2022-11-25T02:03:58;99269.11;;;1.42;92.77
58785;BME280;44557;51.862;19.378;2022-11-25T02:05:02;99264.21;;;1.43;92.57
58785;BME280;44557;51.862;19.378;2022-11-25T02:06:12;99267.04;;;1.53;92.48
58785;BME280;44557;51.862;19.378;2022-11-25T02:07:22;99263.91;;;1.50;92.41
58785;BME280;44557;51.862;19.378;2022-11-25T02:08:25;99266.50;;;1.52;92.22
58785;BME280;44557;51.862;19.378;2022-11-25T02:09:26;99265.09;;;1.43;92.31
58785;BME280;44557;51.862;19.378;2022-11-25T02:10:31;99266.67;;;1.37;93.04
58785;BME280;44557;51.862;19.378;2022-11-25T02:11:35;99265.08;;;1.43;92.94
58785;BME280;44557;51.862;19.378;2022-11-25T02:12:39;99267.16;;;1.47;92.39
58785;BME280;44557;51.862;19.378;2022-11-25T02:13:41;99266.14;;;1.41;92.98
58785;BME280;44557;51.862;19.378;2022-11-25T02:14:44;99265.02;;;1.39;92.95
58785;BME280;44557;51.862;19.378;2022-11-25T02:15:45;99265.73;;;1.43;92.86
58785;BME280;44557;51.862;19.378;2022-11-25T02:16:46;99263.46;;;1.52;92.59
58785;BME280;44557;51.862;19.378;2022-11-25T02:17:47;99265.02;;;1.53;92.56
58785;BME280;44557;51.862;19.378;2022-11-25T02:18:49;99264.56;;;1.49;92.63
58785;BME280;44557;51.862;19.378;2022-11-25T02:20:16;99268.19;;;1.51;92.42
58785;BME280;44557;51.862;19.378;2022-11-25T02:21:30;99267.42;;;1.52;92.72
58785;BME280;44557;51.862;19.378;2022-11-25T02:24:04;99270.32;;;1.54;92.29
58785;BME280;44557;51.862;19.378;2022-11-25T02:26:24;99267.64;;;1.65;92.23
58785;BME280;44557;51.862;19.378;2022-11-25T02:27:26;99267.33;;;1.55;92.67
58785;BME280;44557;51.862;19.378;2022-11-25T02:28:29;99268.14;;;1.55;92.53
58785;BME280;44557;51.862;19.378;2022-11-25T02:29:31;99268.17;;;1.61;91.92
58785;BME280;44557;51.862;19.378;2022-11-25T02:30:33;99269.27;;;1.68;92.14
58785;BME280;44557;51.862;19.378;2022-11-25T02:31:34;99266.89;;;1.55;92.11
58785;BME280;44557;51.862;19.378;2022-11-25T02:32:35;99269.48;;;1.65;91.70
58785;BME280;44557;51.862;19.378;2022-11-25T02:33:42;99270.16;;;1.55;91.87
58785;BME280;44557;51.862;19.378;2022-11-25T02:34:46;99272.08;;;1.58;91.73
58785;BME280;44557;51.862;19.378;2022-11-25T02:36:02;99274.73;;;1.57;91.44
58785;BME280;44557;51.862;19.378;2022-11-25T02:37:04;99277.30;;;1.60;91.47
58785;BME280;44557;51.862;19.378;2022-11-25T02:38:12;99281.64;;;1.52;91.85
58785;BME280;44557;51.862;19.378;2022-11-25T02:39:16;99284.41;;;1.51;92.22
58785;BME280;44557;51.862;19.378;2022-11-25T02:40:18;99283.55;;;1.52;92.12
58785;BME280;44557;51.862;19.378;2022-11-25T02:41:34;99285.29;;;1.51;92.48
58785;BME280;44557;51.862;19.378;2022-11-25T02:42:36;99284.81;;;1.46;92.29
58785;BME280;44557;51.862;19.378;2022-11-25T02:43:38;99284.41;;;1.44;92.59
58785;BME280;44557;51.862;19.378;2022-11-25T02:44:39;99284.41;;;1.48;92.45
58785;BME280;44557;51.862;19.378;2022-11-25T02:46:02;99283.83;;;1.46;92.64
58785;BME280;44557;51.862;19.378;2022-11-25T02:47:03;99288.38;;;1.47;92.77
58785;BME280;44557;51.862;19.378;2022-11-25T02:48:04;99287.78;;;1.47;92.55
58785;BME280;44557;51.862;19.378;2022-11-25T02:49:05;99289.23;;;1.48;92.63
58785;BME280;44557;51.862;19.378;2022-11-25T02:50:07;99289.80;;;1.50;92.59
58785;BME280;44557;51.862;19.378;2022-11-25T02:51:11;99294.38;;;1.49;92.54
58785;BME280;44557;51.862;19.378;2022-11-25T02:52:12;99294.83;;;1.48;92.33
58785;BME280;44557;51.862;19.378;2022-11-25T02:53:13;99294.13;;;1.53;92.23
58785;BME280;44557;51.862;19.378;2022-11-25T02:54:15;99296.48;;;1.50;92.32
58785;BME280;44557;51.862;19.378;2022-11-25T02:55:16;99297.20;;;1.54;92.17
58785;BME280;44557;51.862;19.378;2022-11-25T02:56:20;99290.53;;;1.58;92.18
58785;BME280;44557;51.862;19.378;2022-11-25T02:57:21;99289.57;;;1.61;92.13
58785;BME280;44557;51.862;19.378;2022-11-25T02:58:22;99289.79;;;1.66;91.68
58785;BME280;44557;51.862;19.378;2022-11-25T02:59:23;99295.39;;;1.56;91.94
58785;BME280;44557;51.862;19.378;2022-11-25T03:00:24;99298.95;;;1.52;91.93
58785;BME280;44557;51.862;19.378;2022-11-25T03:01:25;99298.89;;;1.58;92.39
58785;BME280;44557;51.862;19.378;2022-11-25T03:02:27;99300.98;;;1.56;92.52
58785;BME280;44557;51.862;19.378;2022-11-25T03:03:27;99299.23;;;1.53;92.32
58785;BME280;44557;51.862;19.378;2022-11-25T03:04:28;99298.02;;;1.55;92.62
58785;BME280;44557;51.862;19.378;2022-11-25T03:05:29;99297.38;;;1.66;91.95
58785;BME280;44557;51.862;19.378;2022-11-25T03:06:31;99295.80;;;1.67;91.83
58785;BME280;44557;51.862;19.378;2022-11-25T03:07:32;99302.66;;;1.60;91.90
58785;BME280;44557;51.862;19.378;2022-11-25T03:08:33;99303.44;;;1.55;92.32
58785;BME280;44557;51.862;19.378;2022-11-25T03:09:34;99302.70;;;1.62;91.93
58785;BME280;44557;51.862;19.378;2022-11-25T03:10:36;99300.36;;;1.66;92.08
58785;BME280;44557;51.862;19.378;2022-11-25T03:11:37;99301.80;;;1.65;92.08
58785;BME280;44557;51.862;19.378;2022-11-25T03:12:57;99307.83;;;1.61;91.98
58785;BME280;44557;51.862;19.378;2022-11-25T03:13:57;99306.08;;;1.61;91.59
58785;BME280;44557;51.862;19.378;2022-11-25T03:14:58;99309.12;;;1.61;91.92
58785;BME280;44557;51.862;19.378;2022-11-25T03:15:59;99309.02;;;1.60;92.08
58785;BME280;44557;51.862;19.378;2022-11-25T03:17:00;99310.86;;;1.60;92.00
58785;BME280;44557;51.862;19.378;2022-11-25T03:18:03;99312.81;;;1.57;92.44
58785;BME280;44557;51.862;19.378;2022-11-25T03:19:04;99311.35;;;1.60;92.09
58785;BME280;44557;51.862;19.378;2022-11-25T03:20:06;99307.30;;;1.58;92.23
58785;BME280;44557;51.862;19.378;2022-11-25T03:21:08;99309.45;;;1.61;92.23
58785;BME280;44557;51.862;19.378;2022-11-25T03:22:08;99309.64;;;1.63;92.15
58785;BME280;44557;51.862;19.378;2022-11-25T03:23:09;99307.88;;;1.60;92.15
58785;BME280;44557;51.862;19.378;2022-11-25T03:24:10;99305.48;;;1.61;92.24
58785;BME280;44557;51.862;19.378;2022-11-25T03:25:12;99305.31;;;1.61;92.37
58785;BME280;44557;51.862;19.378;2022-11-25T03:26:13;99308.81;;;1.60;92.38
58785;BME280;44557;51.862;19.378;2022-11-25T03:27:14;99308.68;;;1.60;91.88
58785;BME280;44557;51.862;19.378;2022-11-25T03:28:15;99307.86;;;1.62;92.29
58785;BME280;44557;51.862;19.378;2022-11-25T03:29:16;99307.98;;;1.60;92.29
58785;BME280;44557;51.862;19.378;2022-11-25T03:30:19;99310.24;;;1.62;92.03
58785;BME280;44557;51.862;19.378;2022-11-25T03:31:21;99309.55;;;1.66;91.93
58785;BME280;44557;51.862;19.378;2022-11-25T03:32:22;99309.86;;;1.67;92.04
58785;BME280;44557;51.862;19.378;2022-11-25T03:33:22;99310.64;;;1.70;91.94
58785;BME280;44557;51.862;19.378;2022-11-25T03:34:23;99312.98;;;1.70;91.56
58785;BME280;44557;51.862;19.378;2022-11-25T03:35:24;99311.38;;;1.58;92.12
58785;BME280;44557;51.862;19.378;2022-11-25T03:36:25;99312.34;;;1.54;92.27
58785;BME280;44557;51.862;19.378;2022-11-25T03:37:26;99313.98;;;1.58;92.15
58785;BME280;44557;51.862;19.378;2022-11-25T03:38:27;99317.43;;;1.65;92.29
58785;BME280;44557;51.862;19.378;2022-11-25T03:39:28;99314.67;;;1.59;92.65
58785;BME280;44557;51.862;19.378;2022-11-25T03:40:29;99313.08;;;1.56;92.66
58785;BME280;44557;51.862;19.378;2022-11-25T03:41:30;99311.89;;;1.56;92.19
58785;BME280;44557;51.862;19.378;2022-11-25T03:42:31;99309.71;;;1.52;92.28
58785;BME280;44557;51.862;19.378;2022-11-25T03:43:32;99307.77;;;1.54;92.77
58785;BME280;44557;51.862;19.378;2022-11-25T03:44:35;99307.70;;;1.57;92.76
58785;BME280;44557;51.862;19.378;2022-11-25T03:45:36;99305.00;;;1.60;92.60
58785;BME280;44557;51.862;19.378;2022-11-25T03:46:36;99309.93;;;1.61;92.38
58785;BME280;44557;51.862;19.378;2022-11-25T03:47:38;99307.64;;;1.63;92.27
58785;BME280;44557;51.862;19.378;2022-11-25T03:48:39;99305.25;;;1.62;92.42
58785;BME280;44557;51.862;19.378;2022-11-25T03:49:40;99302.63;;;1.59;92.20
58785;BME280;44557;51.862;19.378;2022-11-25T03:50:41;99306.46;;;1.60;92.04
58785;BME280;44557;51.862;19.378;2022-11-25T03:51:42;99307.35;;;1.63;92.20
58785;BME280;44557;51.862;19.378;2022-11-25T03:52:43;99304.44;;;1.66;92.13
58785;BME280;44557;51.862;19.378;2022-11-25T03:53:44;99310.05;;;1.69;92.13
58785;BME280;44557;51.862;19.378;2022-11-25T03:54:45;99308.62;;;1.71;92.00
58785;BME280;44557;51.862;19.378;2022-11-25T03:55:47;99310.00;;;1.64;91.87
58785;BME280;44557;51.862;19.378;2022-11-25T03:56:48;99310.80;;;1.61;92.23
58785;BME280;44557;51.862;19.378;2022-11-25T03:57:49;99311.45;;;1.61;92.23
58785;BME280;44557;51.862;19.378;2022-11-25T03:58:50;99312.05;;;1.60;92.27
58785;BME280;44557;51.862;19.378;2022-11-25T03:59:51;99311.46;;;1.60;92.23
58785;BME280;44557;51.862;19.378;2022-11-25T04:00:51;99311.47;;;1.60;92.50
58785;BME280;44557;51.862;19.378;2022-11-25T04:01:52;99310.13;;;1.63;92.22
58785;BME280;44557;51.862;19.378;2022-11-25T04:02:53;99310.14;;;1.67;92.60
58785;BME280;44557;51.862;19.378;2022-11-25T04:03:54;99313.47;;;1.69;91.90
58785;BME280;44557;51.862;19.378;2022-11-25T04:04:55;99308.08;;;1.76;92.25
58785;BME280;44557;51.862;19.378;2022-11-25T04:05:56;99308.64;;;1.75;91.74
58785;BME280;44557;51.862;19.378;2022-11-25T04:06:57;99314.06;;;1.70;91.78
58785;BME280;44557;51.862;19.378;2022-11-25T04:07:58;99308.70;;;1.64;92.31
58785;BME280;44557;51.862;19.378;2022-11-25T04:09:00;99308.14;;;1.60;92.10
58785;BME280;44557;51.862;19.378;2022-11-25T04:10:00;99309.40;;;1.60;92.44
58785;BME280;44557;51.862;19.378;2022-11-25T04:11:01;99309.45;;;1.60;92.65
58785;BME280;44557;51.862;19.378;2022-11-25T04:12:02;99311.72;;;1.66;92.15
58785;BME280;44557;51.862;19.378;2022-11-25T04:13:22;99309.47;;;1.68;92.56
58785;BME280;44557;51.862;19.378;2022-11-25T04:14:23;99313.19;;;1.66;91.89
58785;BME280;44557;51.862;19.378;2022-11-25T04:15:24;99312.52;;;1.63;92.52
58785;BME280;44557;51.862;19.378;2022-11-25T04:16:25;99314.59;;;1.58;92.49
58785;BME280;44557;51.862;19.378;2022-11-25T04:17:26;99312.64;;;1.58;92.75
58785;BME280;44557;51.862;19.378;2022-11-25T04:18:27;99312.88;;;1.60;92.87
58785;BME280;44557;51.862;19.378;2022-11-25T04:19:28;99310.35;;;1.57;92.87
58785;BME280;44557;51.862;19.378;2022-11-25T04:20:29;99311.56;;;1.57;92.77
58785;BME280;44557;51.862;19.378;2022-11-25T04:21:30;99315.91;;;1.60;92.86
58785;BME280;44557;51.862;19.378;2022-11-25T04:22:31;99315.66;;;1.63;92.66
58785;BME280;44557;51.862;19.378;2022-11-25T04:23:32;99315.32;;;1.64;92.90
58785;BME280;44557;51.862;19.378;2022-11-25T04:24:32;99315.17;;;1.63;92.56
58785;BME280;44557;51.862;19.378;2022-11-25T04:25:35;99314.51;;;1.65;92.38
58785;BME280;44557;51.862;19.378;2022-11-25T04:26:36;99313.58;;;1.69;92.68
58785;BME280;44557;51.862;19.378;2022-11-25T04:27:37;99314.48;;;1.71;92.23
58785;BME280;44557;51.862;19.378;2022-11-25T04:28:38;99315.58;;;1.70;92.33
58785;BME280;44557;51.862;19.378;2022-11-25T04:29:39;99316.23;;;1.71;92.18
58785;BME280;44557;51.862;19.378;2022-11-25T04:30:39;99315.83;;;1.72;92.01
58785;BME280;44557;51.862;19.378;2022-11-25T04:31:40;99315.84;;;1.77;91.88
58785;BME280;44557;51.862;19.378;2022-11-25T04:32:41;99313.16;;;1.76;92.01
58785;BME280;44557;51.862;19.378;2022-11-25T04:33:42;99316.45;;;1.78;91.89
58785;BME280;44557;51.862;19.378;2022-11-25T04:34:43;99315.10;;;1.79;91.78
58785;BME280;44557;51.862;19.378;2022-11-25T04:35:44;99318.05;;;1.74;92.08
58785;BME280;44557;51.862;19.378;2022-11-25T04:36:45;99319.23;;;1.74;92.18
58785;BME280;44557;51.862;19.378;2022-11-25T04:37:46;99318.71;;;1.80;91.94
58785;BME280;44557;51.862;19.378;2022-11-25T04:38:47;99319.75;;;1.75;92.42
58785;BME280;44557;51.862;19.378;2022-11-25T04:39:48;99321.98;;;1.65;92.54
58785;BME280;44557;51.862;19.378;2022-11-25T04:40:49;99323.13;;;1.66;92.64
58785;BME280;44557;51.862;19.378;2022-11-25T04:41:50;99323.39;;;1.67;92.84
58785;BME280;44557;51.862;19.378;2022-11-25T04:43:11;99318.10;;;1.79;92.18
58785;BME280;44557;51.862;19.378;2022-11-25T04:44:12;99323.05;;;1.77;92.06
58785;BME280;44557;51.862;19.378;2022-11-25T04:45:16;99320.80;;;1.80;92.15
58785;BME280;44557;51.862;19.378;2022-11-25T04:46:18;99317.09;;;1.81;92.07
58785;BME280;44557;51.862;19.378;2022-11-25T04:47:21;99320.30;;;1.79;91.84
58785;BME280;44557;51.862;19.378;2022-11-25T04:48:21;99322.58;;;1.76;92.24
58785;BME280;44557;51.862;19.378;2022-11-25T04:49:22;99324.66;;;1.68;92.35
58785;BME280;44557;51.862;19.378;2022-11-25T04:50:23;99324.59;;;1.70;92.43
58785;BME280;44557;51.862;19.378;2022-11-25T04:51:24;99325.89;;;1.70;92.19
58785;BME280;44557;51.862;19.378;2022-11-25T04:52:25;99326.06;;;1.60;92.85
58785;BME280;44557;51.862;19.378;2022-11-25T04:53:26;99328.05;;;1.57;93.16
58785;BME280;44557;51.862;19.378;2022-11-25T04:54:27;99327.19;;;1.57;93.30
58785;BME280;44557;51.862;19.378;2022-11-25T04:55:28;99328.33;;;1.57;93.44
58785;BME280;44557;51.862;19.378;2022-11-25T04:56:29;99328.73;;;1.56;93.36
58785;BME280;44557;51.862;19.378;2022-11-25T04:57:30;99329.97;;;1.65;93.00
58785;BME280;44557;51.862;19.378;2022-11-25T04:58:31;99329.67;;;1.63;92.81
58785;BME280;44557;51.862;19.378;2022-11-25T04:59:50;99328.80;;;1.68;92.61
58785;BME280;44557;51.862;19.378;2022-11-25T05:00:51;99328.45;;;1.70;92.43
58785;BME280;44557;51.862;19.378;2022-11-25T05:01:52;99328.14;;;1.65;92.93
58785;BME280;44557;51.862;19.378;2022-11-25T05:02:53;99327.98;;;1.69;92.77
58785;BME280;44557;51.862;19.378;2022-11-25T05:03:54;99330.28;;;1.67;92.83
58785;BME280;44557;51.862;19.378;2022-11-25T05:04:56;99333.91;;;1.67;92.54
58785;BME280;44557;51.862;19.378;2022-11-25T05:05:57;99335.55;;;1.76;92.61
58785;BME280;44557;51.862;19.378;2022-11-25T05:06:58;99333.65;;;1.80;92.32
58785;BME280;44557;51.862;19.378;2022-11-25T05:07:59;99336.98;;;1.80;92.15
58785;BME280;44557;51.862;19.378;2022-11-25T05:08:59;99333.91;;;1.82;92.22
58785;BME280;44557;51.862;19.378;2022-11-25T05:10:00;99336.66;;;1.74;92.22
58785;BME280;44557;51.862;19.378;2022-11-25T05:11:01;99337.73;;;1.79;92.18
58785;BME280;44557;51.862;19.378;2022-11-25T05:12:03;99336.32;;;1.70;92.27
58785;BME280;44557;51.862;19.378;2022-11-25T05:13:04;99335.98;;;1.62;92.99
58785;BME280;44557;51.862;19.378;2022-11-25T05:14:05;99337.26;;;1.65;92.79
58785;BME280;44557;51.862;19.378;2022-11-25T05:15:07;99339.46;;;1.70;93.06
58785;BME280;44557;51.862;19.378;2022-11-25T05:16:08;99343.25;;;1.72;92.86
58785;BME280;44557;51.862;19.378;2022-11-25T05:17:12;99338.91;;;1.72;92.83
58785;BME280;44557;51.862;19.378;2022-11-25T05:18:13;99343.09;;;1.67;92.93
58785;BME280;44557;51.862;19.378;2022-11-25T05:19:14;99339.41;;;1.71;92.75
58785;BME280;44557;51.862;19.378;2022-11-25T05:20:15;99342.77;;;1.72;92.62
58785;BME280;44557;51.862;19.378;2022-11-25T05:21:16;99344.85;;;1.71;92.51
58785;BME280;44557;51.862;19.378;2022-11-25T05:22:25;99345.72;;;1.70;92.83
58785;BME280;44557;51.862;19.378;2022-11-25T05:23:27;99348.13;;;1.74;92.72
58785;BME280;44557;51.862;19.378;2022-11-25T05:24:28;99348.61;;;1.79;92.31
58785;BME280;44557;51.862;19.378;2022-11-25T05:25:28;99348.77;;;1.80;92.16
58785;BME280;44557;51.862;19.378;2022-11-25T05:26:29;99349.95;;;1.79;92.19
58785;BME280;44557;51.862;19.378;2022-11-25T05:27:30;99348.85;;;1.77;92.43
58785;BME280;44557;51.862;19.378;2022-11-25T05:28:31;99352.03;;;1.79;92.27
58785;BME280;44557;51.862;19.378;2022-11-25T05:29:32;99348.81;;;1.81;92.27
58785;BME280;44557;51.862;19.378;2022-11-25T05:30:33;99351.98;;;1.74;92.65
58785;BME280;44557;51.862;19.378;2022-11-25T05:31:34;99348.25;;;1.66;92.77
58785;BME280;44557;51.862;19.378;2022-11-25T05:32:35;99351.55;;;1.64;92.90
58785;BME280;44557;51.862;19.378;2022-11-25T05:33:36;99350.64;;;1.67;92.78
58785;BME280;44557;51.862;19.378;2022-11-25T05:34:37;99351.69;;;1.70;92.99
58785;BME280;44557;51.862;19.378;2022-11-25T05:35:38;99353.23;;;1.69;92.89
58785;BME280;44557;51.862;19.378;2022-11-25T05:36:38;99352.04;;;1.63;93.02
58785;BME280;44557;51.862;19.378;2022-11-25T05:37:39;99352.28;;;1.66;93.09